Oranmore, Ireland

9:04 PM IST on August 04, 2015 (GMT +0100)
Oranmore | | Change Station
CLOSE
Current Station
Personal Weather Station
Location: Oranmore, Co.Galway
Elevation: 0 ft
Nearby Weather Stations

Elev 0 ft 53.27 °N, 8.93 °W | Updated 2 minutes ago

Mostly Cloudy
Mostly Cloudy
57.9 °F
Feels Like 57.9 °F
N
9.0
Wind Variable Wind from SW
Gusts 12.0 mph

Today
High -- | Low -- °F
--% Chance of Precip.
Yesterday
High -- | Low -- °F
Precip. -- in
5:56 AM 9:25 PM
Waning Gibbous, 75% visible
Pressure 29.77 in
Visibility 6.2 miles
Clouds Few 2100 ft
Mostly Cloudy 13000 ft
Dew Point 52 °F
Humidity 81%
Rainfall 0.20 in
Snow Depth Not available.
UV 0 out of 12
Pollen Not available.
Air Quality Not available.
Flu Activity Not available.
METAR EINN 042000Z 20009KT 9999 FEW021 BKN130 14/10 Q1008 NOSIG

More Conditions Fewer Conditions

Pressure 29.77 in
Visibility 6.2 miles
Clouds Few 2100 ft
Mostly Cloudy 13000 ft
Dew Point 52 °F
Humidity 81%
Rainfall 0.20 in
Snow Depth Not available.
UV 0 out of 12
Pollen Not available.
Air Quality Not available.
Flu Activity Not available.
METAR EINN 042000Z 20009KT 9999 FEW021 BKN130 14/10 Q1008 NOSIG

More Conditions Fewer Conditions

10-Day Weather Forecast

×

Almanac

Astronomy

Aug. 04, 2015 Rise Set
Actual Time
Civil Twilight
Nautical Twilight
Astronomical Twilight
Moon
Length of Visible Light
Length of Day
Tomorrow will be .
, % of the Moon is Illuminated

Today's Extremes

Country Highs Country Lows

Community

WunderPhotos

Upload Photos

1,843,962 photos uploaded!

WunderBlogs® & News

Nearby

Air Quality

  Air Quality AQ Index Pollutant
Not available.

Snow Depth

Station Depth Elevation

Earthquake Activity

City Distance Mag. Time & Date
Minimum magnitude displayed is 2.5.

Coastal Water Temperatures

Place Temperature

Stations

Nearby Weather Stations

Station Location Temp. Windchill Dew Point Humidity Wind Precip. Elev Updated Type